Time;durP1;ratioP1;P1;durP2;ratioP2;P2;SDS_P1;SDS_P2;PMS_P1;PMS_P2;Temp;Humidity;BMP_temperature;BMP_pressure;BME280_temperature;BME280_humidity;BME280_pressure;Samples;Min_cycle;Max_cycle;Signal;HPM_P1;HPM_P2
2023/01/10 00:00:53;;;;;;;4.10;1.58;;;6.60;99.90;;;;;;4994637;28;20078;-65
2023/01/10 00:03:19;;;;;;;7.53;2.13;;;6.50;99.90;;;;;;4994359;28;20323;-65
2023/01/10 00:05:44;;;;;;;5.82;1.02;;;6.60;99.90;;;;;;4977257;28;20030;-70
2023/01/10 00:08:15;;;;;;;4.20;1.17;;;6.60;99.90;;;;;;4994383;28;20486;-67
2023/01/10 00:10:41;;;;;;;7.68;1.17;;;6.60;99.90;;;;;;4989920;28;20033;-66
2023/01/10 00:13:23;;;;;;;15.48;2.53;;;6.60;99.90;;;;;;4987757;28;20414;-66
2023/01/10 00:15:53;;;;;;;13.40;2.00;;;6.60;99.90;;;;;;4982733;28;20058;-69
2023/01/10 00:18:19;;;;;;;1.20;0.75;;;6.60;99.90;;;;;;4994528;28;20525;-65
2023/01/10 00:20:46;;;;;;;0.90;0.75;;;6.60;99.90;;;;;;4994962;28;20084;-64
2023/01/10 00:23:12;;;;;;;4.75;1.15;;;6.60;99.90;;;;;;4994570;28;20527;-66
2023/01/10 00:25:38;;;;;;;15.65;2.00;;;6.60;99.90;;;;;;4994440;28;20115;-65
2023/01/10 00:30:42;;;;;;;17.70;1.55;;;6.60;99.90;;;;;;4977468;28;20092;-65
2023/01/10 00:33:11;;;;;;;1.45;1.25;;;6.70;99.90;;;;;;4994159;28;20046;-65
2023/01/10 00:35:37;;;;;;;21.98;2.70;;;6.80;99.90;;;;;;4994518;28;20498;-65
2023/01/10 00:38:05;;;;;;;3.08;0.82;;;6.70;99.90;;;;;;4994425;28;20037;-65
2023/01/10 00:40:32;;;;;;;4.60;0.90;;;6.80;99.90;;;;;;4981079;28;20352;-65
2023/01/10 00:45:45;;;;;;;9.85;1.17;;;6.70;99.90;;;;;;4964974;28;20037;-65
2023/01/10 00:48:14;;;;;;;18.08;2.83;;;6.70;99.90;;;;;;4976889;28;20018;-66
2023/01/10 00:50:40;;;;;;;6.93;1.23;;;6.70;99.90;;;;;;4973720;28;20479;-71
2023/01/10 00:53:06;;;;;;;1.98;0.85;;;6.70;99.90;;;;;;4974737;28;20561;-67
2023/01/10 00:55:34;;;;;;;2.10;0.47;;;6.70;99.90;;;;;;4975245;28;20019;-64
2023/01/10 00:58:00;;;;;;;7.03;2.05;;;6.80;99.90;;;;;;4975093;28;20027;-64
2023/01/10 01:00:26;;;;;;;3.30;2.33;;;6.80;99.90;;;;;;4974683;28;20031;-68
2023/01/10 01:02:52;;;;;;;1.67;0.75;;;6.80;99.90;;;;;;4974297;28;20165;-64
2023/01/10 01:05:18;;;;;;;17.23;4.15;;;6.80;99.90;;;;;;4992836;28;20022;-64
2023/01/10 01:07:47;;;;;;;5.05;2.47;;;6.70;99.90;;;;;;4995354;28;20030;-64
2023/01/10 01:10:31;;;;;;;12.88;4.28;;;6.70;99.90;;;;;;4996697;28;20156;-64
2023/01/10 01:13:09;;;;;;;2.80;0.68;;;6.70;99.90;;;;;;4994677;28;20096;-64
2023/01/10 01:15:35;;;;;;;1.50;0.77;;;6.70;99.90;;;;;;4996403;28;20029;-64
2023/01/10 01:18:02;;;;;;;8.98;1.73;;;6.70;99.90;;;;;;4978250;28;20371;-64
2023/01/10 01:20:28;;;;;;;5.22;2.67;;;6.60;99.90;;;;;;4996799;28;20041;-64
2023/01/10 01:22:54;;;;;;;18.95;1.80;;;6.50;99.90;;;;;;4995121;28;20030;-64
2023/01/10 01:25:19;;;;;;;6.53;1.65;;;6.50;99.90;;;;;;4978401;28;20459;-67
2023/01/10 01:27:45;;;;;;;1.75;1.02;;;6.50;99.90;;;;;;4995194;28;20125;-64
2023/01/10 01:30:12;;;;;;;6.22;0.80;;;6.40;99.90;;;;;;4995694;28;20456;-64
2023/01/10 01:32:38;;;;;;;12.23;1.38;;;6.50;99.90;;;;;;4995792;28;20042;-64
2023/01/10 01:35:05;;;;;;;12.38;1.00;;;6.40;99.90;;;;;;4995185;28;20085;-64
2023/01/10 01:37:30;;;;;;;1.65;0.98;;;6.50;99.90;;;;;;4996692;28;20026;-68
2023/01/10 01:39:56;;;;;;;5.15;1.92;;;6.60;99.90;;;;;;4994830;28;20115;-64
2023/01/10 01:42:31;;;;;;;0.47;0.47;;;6.50;99.90;;;;;;4996507;28;20052;-64
2023/01/10 01:45:10;;;;;;;3.08;0.95;;;6.50;99.90;;;;;;4995031;28;20039;-65
2023/01/10 01:47:50;;;;;;;9.98;2.25;;;6.50;99.90;;;;;;4996627;28;20026;-64
2023/01/10 01:50:22;;;;;;;7.05;1.23;;;6.40;99.90;;;;;;4980031;28;20026;-68
2023/01/10 01:52:49;;;;;;;10.93;2.33;;;6.40;99.90;;;;;;4992934;28;20042;-65
2023/01/10 01:55:16;;;;;;;0.52;0.52;;;6.40;99.90;;;;;;4992957;28;20026;-64
2023/01/10 01:57:43;;;;;;;18.02;1.67;;;6.40;99.90;;;;;;4993190;28;20027;-64
2023/01/10 02:00:10;;;;;;;14.13;2.20;;;6.50;99.90;;;;;;4993124;28;20142;-64
2023/01/10 02:02:45;;;;;;;9.68;2.33;;;6.40;99.90;;;;;;4993499;28;20491;-64
2023/01/10 02:05:14;;;;;;;1.05;0.35;;;6.40;99.90;;;;;;4993047;28;20027;-71
2023/01/10 02:07:44;;;;;;;4.80;1.42;;;6.40;99.90;;;;;;4995256;28;20076;-65
2023/01/10 02:10:18;;;;;;;28.23;1.42;;;6.50;99.90;;;;;;4996839;28;20113;-70
2023/01/10 02:12:46;;;;;;;6.72;3.50;;;6.50;99.90;;;;;;4997231;28;20093;-68
2023/01/10 02:15:15;;;;;;;4.50;1.05;;;6.40;99.90;;;;;;4997013;28;20088;-65
2023/01/10 02:17:41;;;;;;;20.23;3.38;;;6.40;99.90;;;;;;4979779;28;20057;-64
2023/01/10 02:20:10;;;;;;;5.80;0.57;;;6.40;99.90;;;;;;4996718;28;20475;-64
2023/01/10 02:23:14;;;;;;;7.65;2.15;;;6.50;99.90;;;;;;4996695;28;20033;-70
2023/01/10 02:25:42;;;;;;;11.27;1.27;;;6.40;99.90;;;;;;4996812;28;20130;-65
2023/01/10 02:28:08;;;;;;;8.57;0.65;;;6.50;99.90;;;;;;4979452;28;20054;-64
2023/01/10 02:31:02;;;;;;;21.50;1.55;;;6.50;99.90;;;;;;4996568;28;20062;-64
2023/01/10 02:34:00;;;;;;;6.70;1.65;;;6.40;99.90;;;;;;4994860;28;20038;-66
2023/01/10 02:36:50;;;;;;;1.80;0.98;;;6.40;99.90;;;;;;4981098;28;20039;-68
2023/01/10 02:39:50;;;;;;;13.98;3.55;;;6.40;99.90;;;;;;4996607;28;20027;-66
2023/01/10 02:42:28;;;;;;;7.63;1.80;;;6.30;99.90;;;;;;4996621;28;20026;-70
2023/01/10 02:44:57;;;;;;;1.33;1.23;;;6.30;99.90;;;;;;4996282;28;20027;-66
2023/01/10 02:47:23;;;;;;;22.25;1.73;;;6.20;99.90;;;;;;4996536;28;20081;-66
2023/01/10 02:49:50;;;;;;;2.22;0.57;;;6.10;99.90;;;;;;4996510;28;20072;-68
2023/01/10 02:52:29;;;;;;;3.40;1.60;;;6.10;99.90;;;;;;4995767;28;20041;-64
2023/01/10 02:54:59;;;;;;;9.82;1.67;;;6.10;99.90;;;;;;4996532;28;20045;-65
2023/01/10 02:57:42;;;;;;;2.65;1.02;;;6.10;99.90;;;;;;4996103;28;20088;-70
2023/01/10 03:00:11;;;;;;;2.13;0.95;;;6.00;99.90;;;;;;4996016;28;20034;-65
2023/01/10 03:03:01;;;;;;;12.45;3.65;;;5.90;99.90;;;;;;4995866;28;20069;-68
2023/01/10 03:05:30;;;;;;;12.13;2.13;;;5.90;99.90;;;;;;4995837;28;20058;-64
2023/01/10 03:08:25;;;;;;;4.90;1.60;;;5.80;99.90;;;;;;4995962;28;20064;-65
2023/01/10 03:11:01;;;;;;;12.73;1.95;;;5.80;99.90;;;;;;4995703;28;20022;-64
2023/01/10 03:13:56;;;;;;;0.00;0.00;;;5.80;99.90;;;;;;4995889;28;20066;-64
2023/01/10 03:16:27;;;;;;;7.35;2.30;;;5.80;99.90;;;;;;4978525;28;20450;-64
2023/01/10 03:18:55;;;;;;;7.50;2.10;;;5.80;99.90;;;;;;4993178;28;20049;-64
2023/01/10 03:21:25;;;;;;;0.57;0.28;;;5.90;99.90;;;;;;4976055;28;20031;-64
2023/01/10 03:23:55;;;;;;;5.18;2.30;;;5.90;99.90;;;;;;4975846;28;20035;-68
2023/01/10 03:26:29;;;;;;;32.38;3.15;;;5.80;99.90;;;;;;4957267;28;20042;-67
2023/01/10 03:29:05;;;;;;;7.57;1.75;;;5.90;99.90;;;;;;4957826;28;20054;-64
2023/01/10 03:31:38;;;;;;;8.15;1.83;;;5.80;99.90;;;;;;4976776;28;20554;-69
2023/01/10 03:34:05;;;;;;;11.95;1.75;;;5.80;99.90;;;;;;4976230;28;20034;-64
2023/01/10 03:36:46;;;;;;;0.22;0.22;;;5.80;99.90;;;;;;4960722;28;20023;-65
2023/01/10 03:39:22;;;;;;;0.80;0.60;;;5.80;99.90;;;;;;4975889;28;20031;-64
2023/01/10 03:41:54;;;;;;;4.35;1.52;;;5.70;99.90;;;;;;4976860;28;20036;-69
2023/01/10 03:44:44;;;;;;;0.00;0.00;;;5.70;99.90;;;;;;4998857;28;20117;-65
2023/01/10 03:47:18;;;;;;;9.23;1.17;;;5.80;99.90;;;;;;5012066;28;20029;-66
2023/01/10 03:49:48;;;;;;;6.68;1.42;;;5.80;99.90;;;;;;5010747;28;20493;-63
2023/01/10 03:52:17;;;;;;;2.25;0.70;;;5.70;99.90;;;;;;5011600;28;20048;-64
2023/01/10 03:54:44;;;;;;;4.38;1.88;;;5.60;99.90;;;;;;5011611;28;20398;-69
2023/01/10 03:57:23;;;;;;;24.23;3.17;;;5.60;99.90;;;;;;5010165;28;20022;-65
2023/01/10 03:59:52;;;;;;;5.28;0.65;;;5.60;99.90;;;;;;4999506;28;20445;-64
2023/01/10 04:02:19;;;;;;;10.52;1.67;;;5.60;99.90;;;;;;4977998;28;20027;-64
2023/01/10 04:04:51;;;;;;;2.60;1.35;;;5.50;99.90;;;;;;4976105;28;20027;-64
2023/01/10 04:07:17;;;;;;;12.98;2.40;;;5.50;99.90;;;;;;4972863;28;20034;-64
2023/01/10 04:09:43;;;;;;;6.50;2.58;;;5.50;99.90;;;;;;4975410;28;20102;-68
2023/01/10 04:12:09;;;;;;;1.30;0.55;;;5.50;99.90;;;;;;4975448;28;20118;-63
2023/01/10 04:14:35;;;;;;;5.15;2.38;;;5.50;99.90;;;;;;4974720;28;20105;-64
2023/01/10 04:17:01;;;;;;;0.10;0.10;;;5.40;99.90;;;;;;4976185;28;20030;-66
2023/01/10 04:19:27;;;;;;;6.28;1.25;;;5.50;99.90;;;;;;4976373;28;20073;-64
2023/01/10 04:21:52;;;;;;;0.10;0.10;;;5.70;99.90;;;;;;4976168;28;20034;-71
2023/01/10 04:24:18;;;;;;;1.98;1.20;;;5.70;99.90;;;;;;4997861;28;20034;-67
2023/01/10 04:26:44;;;;;;;1.77;0.70;;;5.70;99.90;;;;;;4999668;28;20022;-64
2023/01/10 04:29:10;;;;;;;11.48;2.75;;;5.50;99.90;;;;;;4999242;28;20026;-65
2023/01/10 04:31:36;;;;;;;2.00;0.98;;;5.40;99.90;;;;;;4996955;28;20039;-64
2023/01/10 04:34:02;;;;;;;0.32;0.32;;;5.40;99.90;;;;;;4994066;28;20026;-64
2023/01/10 04:36:28;;;;;;;5.78;2.47;;;5.50;99.90;;;;;;4993860;28;20031;-66
2023/01/10 04:38:54;;;;;;;10.95;1.65;;;5.30;99.90;;;;;;4980502;28;20033;-64
2023/01/10 04:41:20;;;;;;;8.00;1.73;;;5.30;99.90;;;;;;4958337;28;20038;-65
2023/01/10 04:43:45;;;;;;;9.30;2.08;;;5.20;99.90;;;;;;4973187;28;20034;-65
2023/01/10 04:46:11;;;;;;;0.10;0.10;;;5.30;99.90;;;;;;4976350;28;20031;-65
2023/01/10 04:48:37;;;;;;;0.10;0.10;;;5.20;99.90;;;;;;4955720;28;20033;-64
2023/01/10 04:51:03;;;;;;;2.78;1.00;;;5.20;99.90;;;;;;4975105;28;20039;-64
2023/01/10 04:53:29;;;;;;;9.68;2.72;;;5.30;99.90;;;;;;4975293;28;20035;-65
2023/01/10 04:56:02;;;;;;;15.52;3.67;;;5.20;99.90;;;;;;4956841;28;20034;-64
2023/01/10 04:58:28;;;;;;;7.47;1.17;;;5.20;99.90;;;;;;4977098;28;20042;-64
2023/01/10 05:00:54;;;;;;;1.20;1.10;;;5.20;99.90;;;;;;4973384;28;20027;-65
2023/01/10 05:03:19;;;;;;;1.10;0.93;;;5.20;99.90;;;;;;4977169;28;20098;-72
2023/01/10 05:05:45;;;;;;;0.20;0.20;;;5.30;99.90;;;;;;4975921;28;20072;-70
2023/01/10 05:08:11;;;;;;;6.60;2.05;;;5.20;99.90;;;;;;4974628;28;20117;-68
2023/01/10 05:10:37;;;;;;;14.70;2.00;;;5.00;99.90;;;;;;4975333;28;20081;-65
2023/01/10 05:13:03;;;;;;;4.45;1.17;;;5.10;99.90;;;;;;4973801;28;20049;-65
2023/01/10 05:15:29;;;;;;;0.60;0.50;;;5.10;99.90;;;;;;4973366;28;20037;-70
2023/01/10 05:17:59;;;;;;;0.73;0.43;;;5.10;99.90;;;;;;4969993;28;20041;-65
2023/01/10 05:20:25;;;;;;;1.08;1.08;;;5.10;99.90;;;;;;4994150;28;20026;-65
2023/01/10 05:22:51;;;;;;;0.10;0.10;;;5.00;99.90;;;;;;4993897;28;20456;-65
2023/01/10 05:25:17;;;;;;;0.68;0.68;;;4.80;99.90;;;;;;4993626;28;20029;-65
2023/01/10 05:27:42;;;;;;;10.98;3.05;;;5.00;99.90;;;;;;4993962;28;20080;-67
2023/01/10 05:30:12;;;;;;;0.10;0.10;;;5.00;99.90;;;;;;4993550;28;20479;-64
2023/01/10 05:32:38;;;;;;;4.28;1.55;;;5.00;99.90;;;;;;4993812;28;20130;-65
2023/01/10 05:35:05;;;;;;;2.88;1.08;;;4.90;99.90;;;;;;4993891;28;20080;-65
2023/01/10 05:37:30;;;;;;;0.68;0.20;;;4.90;99.90;;;;;;4993990;28;20029;-68
2023/01/10 05:39:56;;;;;;;14.02;1.60;;;5.00;99.90;;;;;;4993460;28;20030;-69
2023/01/10 05:42:22;;;;;;;6.90;1.20;;;5.10;99.90;;;;;;4993024;28;20117;-65
2023/01/10 05:44:47;;;;;;;0.00;0.00;;;5.10;99.90;;;;;;4992505;28;20023;-64
2023/01/10 05:47:13;;;;;;;3.80;1.33;;;5.00;99.90;;;;;;4997563;28;20590;-64
2023/01/10 05:49:39;;;;;;;7.28;1.67;;;4.90;99.90;;;;;;4990226;28;20026;-69
2023/01/10 05:52:05;;;;;;;1.55;1.45;;;5.00;99.90;;;;;;4992912;28;20517;-65
2023/01/10 05:54:30;;;;;;;8.65;3.60;;;4.90;99.90;;;;;;4992473;28;20030;-64
2023/01/10 05:56:56;;;;;;;7.65;1.08;;;4.90;99.90;;;;;;4992699;28;20512;-64
2023/01/10 05:59:22;;;;;;;12.93;2.25;;;4.80;99.90;;;;;;4992864;28;20506;-64
2023/01/10 06:01:48;;;;;;;13.65;2.42;;;4.90;99.90;;;;;;4976004;28;20023;-70
2023/01/10 06:04:14;;;;;;;19.48;3.05;;;4.90;99.90;;;;;;4974938;28;20131;-64
2023/01/10 06:06:39;;;;;;;0.00;0.00;;;4.80;99.90;;;;;;4975352;28;20023;-65
2023/01/10 06:09:05;;;;;;;5.40;0.98;;;4.80;99.90;;;;;;4974859;28;20030;-64
2023/01/10 06:11:35;;;;;;;1.40;0.52;;;4.80;99.90;;;;;;4973520;28;20110;-70
2023/01/10 06:14:01;;;;;;;5.20;2.38;;;4.80;99.90;;;;;;4956779;28;20041;-65
2023/01/10 06:16:27;;;;;;;1.33;1.05;;;4.70;99.90;;;;;;4972771;28;20102;-64
2023/01/10 06:18:53;;;;;;;0.32;0.17;;;4.70;99.90;;;;;;4972499;28;20153;-65
2023/01/10 06:21:19;;;;;;;0.63;0.63;;;4.60;99.90;;;;;;4974513;28;20555;-69
2023/01/10 06:23:45;;;;;;;15.70;2.33;;;4.70;99.90;;;;;;4975867;28;20105;-65
2023/01/10 06:26:11;;;;;;;3.63;1.38;;;4.60;99.90;;;;;;4974437;28;20434;-64
2023/01/10 06:28:39;;;;;;;2.33;2.13;;;4.50;99.90;;;;;;4973484;28;20053;-65
2023/01/10 06:31:07;;;;;;;6.30;2.00;;;4.50;99.90;;;;;;4973051;28;20027;-65
2023/01/10 06:33:33;;;;;;;2.00;1.73;;;4.40;99.90;;;;;;4972913;28;20030;-67
2023/01/10 06:35:59;;;;;;;6.88;1.92;;;4.40;99.90;;;;;;4972628;28;20465;-68
2023/01/10 06:38:26;;;;;;;1.70;1.42;;;4.40;99.90;;;;;;4974756;28;20386;-65
2023/01/10 06:40:51;;;;;;;3.67;1.92;;;4.40;99.90;;;;;;4975185;28;20101;-66
2023/01/10 06:43:17;;;;;;;3.80;2.22;;;4.40;99.90;;;;;;4973005;28;20114;-65
2023/01/10 06:45:43;;;;;;;1.45;0.73;;;4.40;99.90;;;;;;4972367;28;20467;-72
2023/01/10 06:48:09;;;;;;;9.75;2.47;;;4.40;99.90;;;;;;4975318;28;20022;-64
2023/01/10 06:50:35;;;;;;;0.00;0.00;;;4.40;99.90;;;;;;4975540;28;20033;-64
2023/01/10 06:53:03;;;;;;;12.00;0.68;;;4.40;99.90;;;;;;4993509;28;20148;-64
2023/01/10 06:55:30;;;;;;;1.10;0.60;;;4.40;99.90;;;;;;4979077;28;20026;-64
2023/01/10 06:57:57;;;;;;;1.98;0.85;;;4.50;99.90;;;;;;4996359;28;20034;-65
2023/01/10 07:00:23;;;;;;;5.15;0.57;;;4.50;99.90;;;;;;4997201;28;20030;-64
2023/01/10 07:02:50;;;;;;;0.35;0.35;;;4.40;99.90;;;;;;4996495;28;20030;-64
2023/01/10 07:05:16;;;;;;;0.88;0.70;;;4.30;99.90;;;;;;4996880;28;20034;-64
2023/01/10 07:07:42;;;;;;;3.65;0.52;;;4.30;99.90;;;;;;4995790;28;20038;-66
2023/01/10 07:10:08;;;;;;;22.50;2.42;;;4.30;99.90;;;;;;4979529;28;20028;-70
2023/01/10 07:12:34;;;;;;;5.05;1.60;;;4.30;99.90;;;;;;4995989;28;20480;-64
2023/01/10 07:14:59;;;;;;;13.35;3.83;;;4.30;99.90;;;;;;4996594;28;20018;-65
2023/01/10 07:17:25;;;;;;;0.43;0.15;;;4.30;99.90;;;;;;4996279;28;20486;-65
2023/01/10 07:19:51;;;;;;;12.27;2.05;;;4.30;99.90;;;;;;4996010;28;20050;-65
2023/01/10 07:22:17;;;;;;;1.75;1.65;;;4.40;99.90;;;;;;4996412;28;20035;-65
2023/01/10 07:24:42;;;;;;;14.18;1.75;;;4.30;99.90;;;;;;4996346;28;20023;-65
2023/01/10 07:27:08;;;;;;;0.32;0.32;;;4.50;99.90;;;;;;4996062;28;20030;-65
2023/01/10 07:29:34;;;;;;;3.28;1.48;;;4.40;99.90;;;;;;4996217;28;20181;-65
2023/01/10 07:32:00;;;;;;;10.82;1.58;;;4.40;99.90;;;;;;4977169;28;20038;-70
2023/01/10 07:34:25;;;;;;;1.77;1.65;;;4.50;99.90;;;;;;4960697;28;20034;-66
2023/01/10 07:36:51;;;;;;;6.00;0.98;;;4.40;99.90;;;;;;4976132;28;20023;-64
2023/01/10 07:39:17;;;;;;;2.22;1.17;;;4.40;99.90;;;;;;4986728;28;20023;-63
2023/01/10 07:41:43;;;;;;;11.30;2.08;;;4.40;99.90;;;;;;4994411;28;20101;-75
2023/01/10 07:44:08;;;;;;;4.03;1.10;;;4.40;99.90;;;;;;4976896;28;20023;-65
2023/01/10 07:46:34;;;;;;;0.00;0.00;;;4.30;99.90;;;;;;4995088;28;20038;-65
2023/01/10 07:49:00;;;;;;;3.83;1.38;;;4.40;99.90;;;;;;5011347;28;20069;-65
2023/01/10 07:51:26;;;;;;;2.55;0.85;;;4.40;99.90;;;;;;5009655;28;20367;-65
2023/01/10 07:53:51;;;;;;;25.65;2.28;;;4.50;99.90;;;;;;5009376;28;20113;-65
2023/01/10 07:56:17;;;;;;;40.38;3.30;;;4.50;99.90;;;;;;4996647;28;20025;-65
2023/01/10 07:58:45;;;;;;;1.05;1.00;;;4.50;99.90;;;;;;4994612;28;20410;-65
2023/01/10 08:01:11;;;;;;;0.10;0.10;;;4.50;99.90;;;;;;4994694;28;20026;-65
2023/01/10 08:03:37;;;;;;;6.22;1.50;;;4.50;99.90;;;;;;4976799;28;20034;-64
2023/01/10 08:06:05;;;;;;;4.38;0.57;;;4.60;99.90;;;;;;4997073;28;20022;-65
2023/01/10 08:08:31;;;;;;;11.40;1.00;;;4.70;99.90;;;;;;5004765;28;20022;-65
2023/01/10 08:11:03;;;;;;;14.00;2.00;;;4.70;99.90;;;;;;5001657;28;20399;-67
2023/01/10 08:13:30;;;;;;;3.42;3.17;;;4.60;99.90;;;;;;5005659;28;20041;-67
2023/01/10 08:15:57;;;;;;;3.63;1.23;;;4.70;99.90;;;;;;5001217;28;20042;-65
2023/01/10 08:18:25;;;;;;;4.10;1.88;;;4.70;99.90;;;;;;4994694;28;20038;-65
2023/01/10 08:20:52;;;;;;;0.55;0.30;;;4.70;99.90;;;;;;4997726;28;20041;-65
2023/01/10 08:23:19;;;;;;;26.30;1.55;;;4.80;99.90;;;;;;5011680;28;20497;-66
2023/01/10 08:25:45;;;;;;;4.03;2.85;;;4.80;99.90;;;;;;5000851;28;20445;-65
2023/01/10 08:28:11;;;;;;;2.17;1.15;;;4.80;99.90;;;;;;4976430;28;20093;-65
2023/01/10 08:30:38;;;;;;;16.33;2.00;;;4.70;99.90;;;;;;4982824;28;20037;-65
2023/01/10 08:33:05;;;;;;;5.32;1.73;;;4.70;99.90;;;;;;4997272;28;20030;-66
2023/01/10 08:35:42;;;;;;;2.13;0.43;;;4.70;99.90;;;;;;5008323;28;20050;-65
2023/01/10 08:38:08;;;;;;;23.35;1.83;;;4.70;99.90;;;;;;5005508;28;20034;-65
2023/01/10 08:40:35;;;;;;;4.00;1.38;;;4.70;99.90;;;;;;4999747;28;20082;-64
2023/01/10 08:43:06;;;;;;;13.38;3.30;;;4.80;99.90;;;;;;4976263;28;20553;-64
2023/01/10 08:45:32;;;;;;;13.45;2.22;;;4.90;99.90;;;;;;4994585;28;20105;-64
2023/01/10 08:47:57;;;;;;;9.98;1.70;;;4.90;99.90;;;;;;4994488;28;20065;-68
2023/01/10 08:50:24;;;;;;;6.13;1.33;;;4.80;99.90;;;;;;4994464;28;20030;-72
2023/01/10 08:52:52;;;;;;;1.30;0.73;;;4.90;99.90;;;;;;4993420;28;20039;-64
2023/01/10 08:55:19;;;;;;;4.35;0.93;;;5.00;99.90;;;;;;4993806;28;20380;-64
2023/01/10 08:57:46;;;;;;;8.98;2.35;;;5.10;99.90;;;;;;4994171;28;20042;-66
2023/01/10 09:00:12;;;;;;;5.60;1.48;;;5.10;99.90;;;;;;4993936;28;20014;-64
2023/01/10 09:02:39;;;;;;;4.13;1.35;;;5.10;99.90;;;;;;4994328;28;20076;-65
2023/01/10 09:05:05;;;;;;;13.38;1.75;;;5.20;99.90;;;;;;4993781;28;20030;-66
2023/01/10 09:07:31;;;;;;;4.38;1.90;;;5.30;99.90;;;;;;4976501;28;20375;-65
2023/01/10 09:09:56;;;;;;;5.82;2.13;;;5.30;99.90;;;;;;4993491;28;20038;-65
2023/01/10 09:15:07;;;;;;;6.78;1.42;;;5.30;99.90;;;;;;4974777;28;20046;-66
2023/01/10 09:17:33;;;;;;;0.20;0.20;;;5.30;99.90;;;;;;4993056;28;20070;-64
2023/01/10 09:19:58;;;;;;;5.22;1.15;;;5.50;99.90;;;;;;4993301;28;20018;-65
2023/01/10 09:22:24;;;;;;;1.75;1.13;;;5.60;99.90;;;;;;4993165;28;20033;-64
2023/01/10 09:24:50;;;;;;;12.63;2.95;;;5.50;99.90;;;;;;4993835;28;20037;-65
2023/01/10 09:27:16;;;;;;;4.22;1.75;;;5.60;99.90;;;;;;4976086;28;20041;-65
2023/01/10 09:29:41;;;;;;;10.02;2.35;;;5.60;99.90;;;;;;4993676;28;20034;-65
2023/01/10 09:32:08;;;;;;;10.77;1.42;;;5.50;99.90;;;;;;4993296;28;20031;-65
2023/01/10 09:34:34;;;;;;;2.30;1.38;;;5.50;99.90;;;;;;4993939;28;20101;-64
2023/01/10 09:37:00;;;;;;;3.83;0.98;;;5.60;99.90;;;;;;4993187;28;20105;-66
2023/01/10 09:39:27;;;;;;;3.33;1.40;;;5.50;99.90;;;;;;4992804;28;20026;-64
2023/01/10 09:41:59;;;;;;;6.03;2.30;;;5.50;99.90;;;;;;4993633;28;20030;-64
2023/01/10 09:44:53;;;;;;;8.77;0.45;;;5.60;99.90;;;;;;4976017;28;20580;-64
2023/01/10 09:47:32;;;;;;;13.40;1.85;;;5.60;99.90;;;;;;4993401;28;20462;-64
2023/01/10 09:49:57;;;;;;;12.15;1.15;;;5.60;99.90;;;;;;4993066;28;20084;-65
2023/01/10 09:52:33;;;;;;;27.10;3.30;;;5.80;99.90;;;;;;4993351;28;20042;-66
2023/01/10 09:55:09;;;;;;;3.67;0.65;;;5.70;99.90;;;;;;4992214;28;20034;-64
2023/01/10 09:57:35;;;;;;;13.27;3.92;;;5.50;99.90;;;;;;4975695;28;20077;-65
2023/01/10 10:00:01;;;;;;;8.05;1.42;;;5.60;99.90;;;;;;4975677;28;20062;-66
2023/01/10 10:02:41;;;;;;;6.13;1.08;;;5.60;99.90;;;;;;4993423;28;20045;-65
2023/01/10 10:05:27;;;;;;;0.77;0.68;;;5.70;99.90;;;;;;4993032;28;20073;-64
2023/01/10 10:08:01;;;;;;;3.05;0.68;;;5.80;99.90;;;;;;4993470;28;20046;-64
2023/01/10 10:10:50;;;;;;;5.22;1.38;;;5.70;99.90;;;;;;4992946;28;20029;-65
2023/01/10 10:13:19;;;;;;;13.60;1.80;;;5.90;99.90;;;;;;4992904;28;20042;-64
2023/01/10 10:15:54;;;;;;;7.55;1.92;;;5.90;99.90;;;;;;4993041;28;20026;-65
2023/01/10 10:18:38;;;;;;;4.38;1.23;;;5.90;99.90;;;;;;4993164;28;20038;-65
2023/01/10 10:21:27;;;;;;;3.08;1.17;;;6.00;99.90;;;;;;4975690;28;20374;-64
2023/01/10 10:24:05;;;;;;;3.40;0.73;;;6.10;99.90;;;;;;4993084;28;20033;-65
2023/01/10 10:26:39;;;;;;;5.32;1.98;;;6.10;99.90;;;;;;4993103;28;20041;-65
2023/01/10 10:29:12;;;;;;;5.53;1.98;;;6.10;99.90;;;;;;4995896;28;20026;-64
2023/01/10 10:31:47;;;;;;;10.55;1.88;;;6.20;99.90;;;;;;4979215;28;20038;-64
2023/01/10 10:34:27;;;;;;;8.25;2.65;;;6.20;99.90;;;;;;4996808;28;20494;-64
2023/01/10 10:37:04;;;;;;;18.90;2.72;;;6.20;99.90;;;;;;4979273;28;20030;-65
2023/01/10 10:39:47;;;;;;;0.98;0.95;;;6.30;99.90;;;;;;4996334;28;20062;-65
2023/01/10 10:42:16;;;;;;;1.92;1.45;;;6.30;99.90;;;;;;4996578;28;20426;-64
2023/01/10 10:45:01;;;;;;;13.50;1.27;;;6.30;99.90;;;;;;4996333;28;20022;-64
2023/01/10 10:47:31;;;;;;;16.27;2.13;;;6.30;99.90;;;;;;4996570;28;20382;-64
2023/01/10 10:50:16;;;;;;;5.30;2.47;;;6.40;99.90;;;;;;4995918;28;20022;-64
2023/01/10 10:52:43;;;;;;;0.15;0.15;;;6.40;99.90;;;;;;4996299;28;20035;-65
2023/01/10 10:55:15;;;;;;;3.17;1.80;;;6.50;99.90;;;;;;4978861;28;20025;-64
2023/01/10 10:57:43;;;;;;;4.90;1.75;;;6.50;99.90;;;;;;4996126;28;20046;-65
2023/01/10 11:00:15;;;;;;;2.50;1.50;;;6.60;99.90;;;;;;4996088;28;20530;-65
2023/01/10 11:02:50;;;;;;;6.50;2.13;;;6.60;99.90;;;;;;4978814;28;20125;-67
2023/01/10 11:05:25;;;;;;;2.15;1.13;;;6.50;99.90;;;;;;4994969;28;20491;-74
2023/01/10 11:07:56;;;;;;;15.55;3.38;;;6.60;99.90;;;;;;4999417;28;20030;-65
2023/01/10 11:10:35;;;;;;;6.28;3.20;;;6.70;99.90;;;;;;5000481;28;20484;-65
2023/01/10 11:13:11;;;;;;;1.95;1.02;;;6.60;99.90;;;;;;4982095;28;20042;-67
2023/01/10 11:15:45;;;;;;;3.38;2.05;;;6.80;99.90;;;;;;4979748;28;20482;-66
2023/01/10 11:18:21;;;;;;;4.50;1.00;;;6.80;99.90;;;;;;4996881;28;20030;-65
2023/01/10 11:21:15;;;;;;;3.15;1.02;;;6.80;99.90;;;;;;4995725;28;20042;-66
2023/01/10 11:23:52;;;;;;;4.10;1.45;;;7.00;99.90;;;;;;4995025;28;20092;-65
2023/01/10 11:26:26;;;;;;;1.50;0.70;;;7.10;99.90;;;;;;4995877;28;20037;-65
2023/01/10 11:29:03;;;;;;;5.47;1.40;;;7.10;99.90;;;;;;4995945;28;20505;-65
2023/01/10 11:31:29;;;;;;;0.80;0.32;;;7.10;99.90;;;;;;4995651;28;20027;-65
2023/01/10 11:33:56;;;;;;;0.95;0.63;;;7.20;99.90;;;;;;4995035;28;20410;-64
2023/01/10 11:36:22;;;;;;;16.38;2.72;;;7.20;99.90;;;;;;4995717;28;20030;-65
2023/01/10 11:39:02;;;;;;;2.55;0.88;;;7.10;99.90;;;;;;4978338;28;20038;-65
2023/01/10 11:41:33;;;;;;;1.38;1.33;;;7.20;99.90;;;;;;4995294;28;20033;-66
2023/01/10 11:44:25;;;;;;;11.35;3.42;;;7.30;99.90;;;;;;4995267;28;20030;-65
2023/01/10 11:46:54;;;;;;;;;;;7.30;99.90;;;;;;4995193;28;20046;-65
2023/01/10 11:49:42;;;;;;;1.80;1.33;;;7.30;99.90;;;;;;5011066;28;20278;-64
2023/01/10 11:52:26;;;;;;;17.23;2.42;;;7.40;99.90;;;;;;4994772;28;20509;-64
2023/01/10 11:54:55;;;;;;;7.22;1.65;;;7.40;99.90;;;;;;4995126;28;20046;-65
2023/01/10 11:57:26;;;;;;;3.95;0.63;;;7.40;99.90;;;;;;4995158;28;20029;-65
2023/01/10 12:00:01;;;;;;;4.28;1.58;;;7.40;99.90;;;;;;4995149;28;20081;-65
2023/01/10 12:02:34;;;;;;;14.13;2.83;;;7.40;99.90;;;;;;4995008;28;20029;-65
2023/01/10 12:05:04;;;;;;;13.65;1.88;;;7.40;99.90;;;;;;4994980;28;20039;-65
2023/01/10 12:07:50;;;;;;;4.72;0.77;;;7.40;99.90;;;;;;4995112;28;20058;-65
2023/01/10 12:10:22;;;;;;;5.97;1.70;;;7.40;99.90;;;;;;4994770;28;20026;-65
2023/01/10 12:12:58;;;;;;;2.60;0.65;;;7.40;99.90;;;;;;4994855;28;20391;-69
2023/01/10 12:15:26;;;;;;;6.13;2.10;;;7.40;99.90;;;;;;4995008;28;20394;-65
2023/01/10 12:17:55;;;;;;;11.45;4.28;;;7.40;99.90;;;;;;4994528;28;20042;-65
2023/01/10 12:20:22;;;;;;;19.95;1.42;;;7.40;99.90;;;;;;4995068;28;20121;-66
2023/01/10 12:23:04;;;;;;;2.35;0.88;;;7.50;99.90;;;;;;4994405;28;20027;-64
2023/01/10 12:25:36;;;;;;;23.77;3.75;;;7.50;99.90;;;;;;4994184;28;20022;-65
2023/01/10 12:28:02;;;;;;;25.77;2.42;;;7.50;99.90;;;;;;4994644;28;20037;-66
2023/01/10 12:30:33;;;;;;;8.10;3.20;;;7.40;99.90;;;;;;4994713;28;20371;-65
2023/01/10 12:33:10;;;;;;;3.13;2.93;;;7.50;99.90;;;;;;4994301;28;20483;-65
2023/01/10 12:35:42;;;;;;;17.35;1.77;;;7.40;99.90;;;;;;4977103;28;20800;-65
2023/01/10 12:44:33;;;;;;;0.43;0.40;;;7.40;99.90;;;;;;4964110;28;20125;-65
2023/01/10 12:47:14;;;;;;;1.63;1.15;;;7.40;99.90;;;;;;4994106;28;20037;-65
2023/01/10 12:49:53;;;;;;;11.80;1.88;;;7.30;99.90;;;;;;4994731;28;20033;-65
2023/01/10 12:52:44;;;;;;;11.95;2.63;;;7.20;99.90;;;;;;5003966;28;20046;-67
2023/01/10 12:55:15;;;;;;;4.88;1.02;;;7.20;99.90;;;;;;4993897;28;20364;-69
2023/01/10 12:57:43;;;;;;;5.47;0.98;;;7.20;99.90;;;;;;4976808;28;20026;-65
2023/01/10 13:00:50;;;;;;;0.47;0.30;;;7.20;99.90;;;;;;4976029;28;20033;-65
2023/01/10 13:03:20;;;;;;;5.00;1.05;;;7.20;99.90;;;;;;4950503;28;20038;-65
2023/01/10 13:05:49;;;;;;;2.03;1.30;;;7.20;99.90;;;;;;4993946;28;20484;-65
2023/01/10 13:08:18;;;;;;;16.52;3.40;;;7.10;99.90;;;;;;4994112;28;20548;-65
2023/01/10 13:10:50;;;;;;;3.92;1.88;;;7.00;99.90;;;;;;4993860;28;20041;-65
2023/01/10 13:13:19;;;;;;;16.40;3.28;;;7.00;99.90;;;;;;4993821;28;20177;-65
2023/01/10 13:16:00;;;;;;;3.78;0.70;;;7.00;99.90;;;;;;4993539;28;20034;-65
2023/01/10 13:18:31;;;;;;;1.30;0.60;;;7.10;99.90;;;;;;4993900;28;20037;-66
2023/01/10 13:21:12;;;;;;;7.25;1.55;;;7.10;99.90;;;;;;4993780;28;20042;-65
2023/01/10 13:23:47;;;;;;;4.78;3.30;;;7.00;99.90;;;;;;4993650;28;20375;-65
2023/01/10 13:26:13;;;;;;;4.13;0.90;;;7.00;99.90;;;;;;4993655;28;20113;-64